sensor_id;sensor_type;location;lat;lon;timestamp;temperature;humidity
4435;DHT22;46552;52.150;8.428;2023-04-25T00:00:43;7.90;99.90
4435;DHT22;46552;52.150;8.428;2023-04-25T00:03:11;7.90;99.90
4435;DHT22;46552;52.150;8.428;2023-04-25T00:05:39;7.90;99.90
4435;DHT22;46552;52.150;8.428;2023-04-25T00:08:08;7.90;99.90
4435;DHT22;46552;52.150;8.428;2023-04-25T00:10:35;7.90;99.90
4435;DHT22;46552;52.150;8.428;2023-04-25T00:13:03;7.80;99.90
4435;DHT22;46552;52.150;8.428;2023-04-25T00:15:32;7.80;99.90
4435;DHT22;46552;52.150;8.428;2023-04-25T00:18:00;7.80;99.90
4435;DHT22;46552;52.150;8.428;2023-04-25T00:20:29;7.80;99.90
4435;DHT22;46552;52.150;8.428;2023-04-25T00:22:57;7.80;99.90
4435;DHT22;46552;52.150;8.428;2023-04-25T00:25:26;7.80;99.90
4435;DHT22;46552;52.150;8.428;2023-04-25T00:27:54;7.80;99.90
4435;DHT22;46552;52.150;8.428;2023-04-25T00:30:22;7.80;99.90
4435;DHT22;46552;52.150;8.428;2023-04-25T00:32:50;7.80;99.90
4435;DHT22;46552;52.150;8.428;2023-04-25T00:35:18;7.80;99.90
4435;DHT22;46552;52.150;8.428;2023-04-25T00:37:46;7.70;99.90
4435;DHT22;46552;52.150;8.428;2023-04-25T00:40:14;7.80;99.90
4435;DHT22;46552;52.150;8.428;2023-04-25T00:42:45;7.70;99.90
4435;DHT22;46552;52.150;8.428;2023-04-25T00:45:14;7.70;99.90
4435;DHT22;46552;52.150;8.428;2023-04-25T00:47:42;7.70;99.90
4435;DHT22;46552;52.150;8.428;2023-04-25T00:50:09;7.70;99.90
4435;DHT22;46552;52.150;8.428;2023-04-25T00:52:37;7.60;99.90
4435;DHT22;46552;52.150;8.428;2023-04-25T00:55:05;7.60;99.90
4435;DHT22;46552;52.150;8.428;2023-04-25T00:57:33;7.70;99.90
4435;DHT22;46552;52.150;8.428;2023-04-25T01:00:03;7.70;99.90
4435;DHT22;46552;52.150;8.428;2023-04-25T01:02:32;7.70;99.90
4435;DHT22;46552;52.150;8.428;2023-04-25T01:05:01;7.60;99.90
4435;DHT22;46552;52.150;8.428;2023-04-25T01:07:28;7.70;99.90
4435;DHT22;46552;52.150;8.428;2023-04-25T01:09:56;7.60;99.90
4435;DHT22;46552;52.150;8.428;2023-04-25T01:12:23;7.70;99.90
4435;DHT22;46552;52.150;8.428;2023-04-25T01:14:52;7.70;99.90
4435;DHT22;46552;52.150;8.428;2023-04-25T01:17:21;7.70;99.90
4435;DHT22;46552;52.150;8.428;2023-04-25T01:19:49;7.70;99.90
4435;DHT22;46552;52.150;8.428;2023-04-25T01:22:19;7.70;99.90
4435;DHT22;46552;52.150;8.428;2023-04-25T01:24:46;7.70;99.90
4435;DHT22;46552;52.150;8.428;2023-04-25T01:27:15;7.70;99.90
4435;DHT22;46552;52.150;8.428;2023-04-25T01:29:42;7.70;99.90
4435;DHT22;46552;52.150;8.428;2023-04-25T01:32:09;7.70;99.90
4435;DHT22;46552;52.150;8.428;2023-04-25T01:34:37;7.70;99.90
4435;DHT22;46552;52.150;8.428;2023-04-25T01:37:05;7.80;99.90
4435;DHT22;46552;52.150;8.428;2023-04-25T01:39:33;7.80;99.90
4435;DHT22;46552;52.150;8.428;2023-04-25T01:42:01;7.80;99.90
4435;DHT22;46552;52.150;8.428;2023-04-25T01:44:28;7.80;99.90
4435;DHT22;46552;52.150;8.428;2023-04-25T01:46:55;7.80;99.90
4435;DHT22;46552;52.150;8.428;2023-04-25T01:49:22;7.80;99.90
4435;DHT22;46552;52.150;8.428;2023-04-25T01:51:49;7.90;99.90
4435;DHT22;46552;52.150;8.428;2023-04-25T01:54:17;7.90;99.90
4435;DHT22;46552;52.150;8.428;2023-04-25T01:56:52;7.90;99.90
4435;DHT22;46552;52.150;8.428;2023-04-25T01:59:19;7.90;99.90
4435;DHT22;46552;52.150;8.428;2023-04-25T02:01:47;7.90;99.90
4435;DHT22;46552;52.150;8.428;2023-04-25T02:04:16;7.90;99.90
4435;DHT22;46552;52.150;8.428;2023-04-25T02:06:44;7.90;99.90
4435;DHT22;46552;52.150;8.428;2023-04-25T02:09:12;7.90;99.90
4435;DHT22;46552;52.150;8.428;2023-04-25T02:11:40;7.90;99.90
4435;DHT22;46552;52.150;8.428;2023-04-25T02:14:08;7.90;99.90
4435;DHT22;46552;52.150;8.428;2023-04-25T02:16:35;7.90;99.90
4435;DHT22;46552;52.150;8.428;2023-04-25T02:19:02;7.90;99.90
4435;DHT22;46552;52.150;8.428;2023-04-25T02:21:30;7.90;99.90
4435;DHT22;46552;52.150;8.428;2023-04-25T02:23:57;7.90;99.90
4435;DHT22;46552;52.150;8.428;2023-04-25T02:26:25;7.90;99.90
4435;DHT22;46552;52.150;8.428;2023-04-25T02:28:52;7.90;99.90
4435;DHT22;46552;52.150;8.428;2023-04-25T02:31:21;8.00;99.90
4435;DHT22;46552;52.150;8.428;2023-04-25T02:33:49;7.90;99.90
4435;DHT22;46552;52.150;8.428;2023-04-25T02:36:17;7.90;99.90
4435;DHT22;46552;52.150;8.428;2023-04-25T02:38:44;7.90;99.90
4435;DHT22;46552;52.150;8.428;2023-04-25T02:41:11;7.90;99.90
4435;DHT22;46552;52.150;8.428;2023-04-25T02:43:38;7.80;99.90
4435;DHT22;46552;52.150;8.428;2023-04-25T02:48:36;7.80;99.90
4435;DHT22;46552;52.150;8.428;2023-04-25T02:51:03;7.80;99.90
4435;DHT22;46552;52.150;8.428;2023-04-25T02:53:30;7.80;99.90
4435;DHT22;46552;52.150;8.428;2023-04-25T02:55:57;7.80;99.90
4435;DHT22;46552;52.150;8.428;2023-04-25T03:00:52;7.70;99.90
4435;DHT22;46552;52.150;8.428;2023-04-25T03:03:19;7.70;99.90
4435;DHT22;46552;52.150;8.428;2023-04-25T03:05:48;7.70;99.90
4435;DHT22;46552;52.150;8.428;2023-04-25T03:08:16;7.70;99.90
4435;DHT22;46552;52.150;8.428;2023-04-25T03:10:43;7.70;99.90
4435;DHT22;46552;52.150;8.428;2023-04-25T03:13:10;7.70;99.90
4435;DHT22;46552;52.150;8.428;2023-04-25T03:15:39;7.60;99.90
4435;DHT22;46552;52.150;8.428;2023-04-25T03:18:05;7.70;99.90
4435;DHT22;46552;52.150;8.428;2023-04-25T03:20:32;7.60;99.90
4435;DHT22;46552;52.150;8.428;2023-04-25T03:23:01;7.60;99.90
4435;DHT22;46552;52.150;8.428;2023-04-25T03:25:28;7.60;99.90
4435;DHT22;46552;52.150;8.428;2023-04-25T03:27:55;7.60;99.90
4435;DHT22;46552;52.150;8.428;2023-04-25T03:30:22;7.60;99.90
4435;DHT22;46552;52.150;8.428;2023-04-25T03:32:49;7.60;99.90
4435;DHT22;46552;52.150;8.428;2023-04-25T03:35:17;7.60;99.90
4435;DHT22;46552;52.150;8.428;2023-04-25T03:37:44;7.60;99.90
4435;DHT22;46552;52.150;8.428;2023-04-25T03:40:13;7.60;99.90
4435;DHT22;46552;52.150;8.428;2023-04-25T03:42:40;7.60;99.90
4435;DHT22;46552;52.150;8.428;2023-04-25T03:45:08;7.60;99.90
4435;DHT22;46552;52.150;8.428;2023-04-25T03:47:36;7.60;99.90
4435;DHT22;46552;52.150;8.428;2023-04-25T03:50:04;7.50;99.90
4435;DHT22;46552;52.150;8.428;2023-04-25T03:52:31;7.60;99.90
4435;DHT22;46552;52.150;8.428;2023-04-25T03:54:59;7.60;99.90
4435;DHT22;46552;52.150;8.428;2023-04-25T03:57:28;7.60;99.90
4435;DHT22;46552;52.150;8.428;2023-04-25T03:59:56;7.60;99.90
4435;DHT22;46552;52.150;8.428;2023-04-25T04:02:23;7.50;99.90
4435;DHT22;46552;52.150;8.428;2023-04-25T04:04:50;7.50;99.90
4435;DHT22;46552;52.150;8.428;2023-04-25T04:07:18;7.50;99.90
4435;DHT22;46552;52.150;8.428;2023-04-25T04:12:13;7.50;99.90
4435;DHT22;46552;52.150;8.428;2023-04-25T04:14:42;7.50;99.90
4435;DHT22;46552;52.150;8.428;2023-04-25T04:17:09;7.50;99.90
4435;DHT22;46552;52.150;8.428;2023-04-25T04:19:37;7.10;99.90
4435;DHT22;46552;52.150;8.428;2023-04-25T04:22:04;7.50;99.90
4435;DHT22;46552;52.150;8.428;2023-04-25T04:24:31;7.50;99.90
4435;DHT22;46552;52.150;8.428;2023-04-25T04:26:58;7.50;99.90
4435;DHT22;46552;52.150;8.428;2023-04-25T04:31:56;7.50;99.90
4435;DHT22;46552;52.150;8.428;2023-04-25T04:34:23;7.50;99.90
4435;DHT22;46552;52.150;8.428;2023-04-25T04:36:51;7.50;99.90
4435;DHT22;46552;52.150;8.428;2023-04-25T04:39:18;7.40;99.90
4435;DHT22;46552;52.150;8.428;2023-04-25T04:41:46;7.50;99.90
4435;DHT22;46552;52.150;8.428;2023-04-25T04:44:13;7.50;99.90
4435;DHT22;46552;52.150;8.428;2023-04-25T04:46:40;7.40;99.90
4435;DHT22;46552;52.150;8.428;2023-04-25T04:49:10;7.40;99.90
4435;DHT22;46552;52.150;8.428;2023-04-25T04:51:37;7.50;99.90
4435;DHT22;46552;52.150;8.428;2023-04-25T04:54:04;7.50;99.90
4435;DHT22;46552;52.150;8.428;2023-04-25T04:56:32;7.50;99.90
4435;DHT22;46552;52.150;8.428;2023-04-25T04:58:59;7.40;99.90
4435;DHT22;46552;52.150;8.428;2023-04-25T05:01:27;7.40;99.90
4435;DHT22;46552;52.150;8.428;2023-04-25T05:06:27;7.40;99.90
4435;DHT22;46552;52.150;8.428;2023-04-25T05:08:56;7.50;99.90
4435;DHT22;46552;52.150;8.428;2023-04-25T05:11:23;7.50;99.90
4435;DHT22;46552;52.150;8.428;2023-04-25T05:13:51;7.50;99.90
4435;DHT22;46552;52.150;8.428;2023-04-25T05:16:18;7.50;99.90
4435;DHT22;46552;52.150;8.428;2023-04-25T05:18:46;7.50;99.90
4435;DHT22;46552;52.150;8.428;2023-04-25T05:21:13;7.50;99.90
4435;DHT22;46552;52.150;8.428;2023-04-25T05:23:42;7.60;99.90
4435;DHT22;46552;52.150;8.428;2023-04-25T05:26:10;7.50;99.90
4435;DHT22;46552;52.150;8.428;2023-04-25T05:28:39;7.60;99.90
4435;DHT22;46552;52.150;8.428;2023-04-25T05:31:11;7.60;99.90
4435;DHT22;46552;52.150;8.428;2023-04-25T05:36:07;7.60;99.90
4435;DHT22;46552;52.150;8.428;2023-04-25T05:38:34;7.60;99.90
4435;DHT22;46552;52.150;8.428;2023-04-25T05:41:02;7.60;99.90
4435;DHT22;46552;52.150;8.428;2023-04-25T05:43:29;7.60;99.90
4435;DHT22;46552;52.150;8.428;2023-04-25T05:45:57;7.70;99.90
4435;DHT22;46552;52.150;8.428;2023-04-25T05:48:24;7.70;99.90
4435;DHT22;46552;52.150;8.428;2023-04-25T05:50:51;7.70;99.90
4435;DHT22;46552;52.150;8.428;2023-04-25T05:53:18;7.70;99.90
4435;DHT22;46552;52.150;8.428;2023-04-25T05:55:46;7.70;99.90
4435;DHT22;46552;52.150;8.428;2023-04-25T05:58:16;7.70;99.90
4435;DHT22;46552;52.150;8.428;2023-04-25T06:00:43;7.80;99.90
4435;DHT22;46552;52.150;8.428;2023-04-25T06:03:11;7.80;99.90
4435;DHT22;46552;52.150;8.428;2023-04-25T06:05:41;7.80;99.90
4435;DHT22;46552;52.150;8.428;2023-04-25T06:08:08;7.90;99.90
4435;DHT22;46552;52.150;8.428;2023-04-25T06:10:36;7.90;99.90
4435;DHT22;46552;52.150;8.428;2023-04-25T06:13:03;7.90;99.90
4435;DHT22;46552;52.150;8.428;2023-04-25T06:15:33;7.90;99.90
4435;DHT22;46552;52.150;8.428;2023-04-25T06:18:01;7.90;99.90
4435;DHT22;46552;52.150;8.428;2023-04-25T06:20:28;8.00;99.90
4435;DHT22;46552;52.150;8.428;2023-04-25T06:22:56;7.90;99.90
4435;DHT22;46552;52.150;8.428;2023-04-25T06:25:24;8.00;99.90
4435;DHT22;46552;52.150;8.428;2023-04-25T06:27:51;8.00;99.90
4435;DHT22;46552;52.150;8.428;2023-04-25T06:30:19;8.10;99.90
4435;DHT22;46552;52.150;8.428;2023-04-25T06:32:50;8.10;99.90
4435;DHT22;46552;52.150;8.428;2023-04-25T06:35:18;8.10;99.90
4435;DHT22;46552;52.150;8.428;2023-04-25T06:40:13;8.20;99.90
4435;DHT22;46552;52.150;8.428;2023-04-25T06:42:41;8.20;99.90
4435;DHT22;46552;52.150;8.428;2023-04-25T06:45:09;8.30;99.90
4435;DHT22;46552;52.150;8.428;2023-04-25T06:47:36;8.30;99.90
4435;DHT22;46552;52.150;8.428;2023-04-25T06:50:06;8.40;99.90
4435;DHT22;46552;52.150;8.428;2023-04-25T06:52:33;8.40;99.90
4435;DHT22;46552;52.150;8.428;2023-04-25T06:55:00;8.40;99.90
4435;DHT22;46552;52.150;8.428;2023-04-25T06:57:27;8.50;99.90
4435;DHT22;46552;52.150;8.428;2023-04-25T06:59:54;8.60;99.90
4435;DHT22;46552;52.150;8.428;2023-04-25T07:02:21;8.70;99.90
4435;DHT22;46552;52.150;8.428;2023-04-25T07:04:49;8.80;99.90
4435;DHT22;46552;52.150;8.428;2023-04-25T07:07:17;8.80;99.90
4435;DHT22;46552;52.150;8.428;2023-04-25T07:09:44;8.90;99.90
4435;DHT22;46552;52.150;8.428;2023-04-25T07:12:12;8.90;99.90
4435;DHT22;46552;52.150;8.428;2023-04-25T07:14:39;9.00;99.90
4435;DHT22;46552;52.150;8.428;2023-04-25T07:17:07;9.10;99.90
4435;DHT22;46552;52.150;8.428;2023-04-25T07:19:34;9.00;99.90
4435;DHT22;46552;52.150;8.428;2023-04-25T07:22:03;9.00;99.90
4435;DHT22;46552;52.150;8.428;2023-04-25T07:24:32;9.00;99.90
4435;DHT22;46552;52.150;8.428;2023-04-25T07:26:59;9.00;99.90
4435;DHT22;46552;52.150;8.428;2023-04-25T07:29:28;9.10;99.90
4435;DHT22;46552;52.150;8.428;2023-04-25T07:31:56;9.10;99.90
4435;DHT22;46552;52.150;8.428;2023-04-25T07:34:23;9.10;99.90
4435;DHT22;46552;52.150;8.428;2023-04-25T07:36:52;9.10;99.90
4435;DHT22;46552;52.150;8.428;2023-04-25T07:39:19;9.20;99.90
4435;DHT22;46552;52.150;8.428;2023-04-25T07:41:49;9.40;99.90
4435;DHT22;46552;52.150;8.428;2023-04-25T07:44:16;9.50;99.90
4435;DHT22;46552;52.150;8.428;2023-04-25T07:46:43;9.50;99.90
4435;DHT22;46552;52.150;8.428;2023-04-25T07:49:10;9.80;99.90
4435;DHT22;46552;52.150;8.428;2023-04-25T07:51:38;9.90;99.90
4435;DHT22;46552;52.150;8.428;2023-04-25T07:54:06;10.10;99.90
4435;DHT22;46552;52.150;8.428;2023-04-25T07:56:33;10.30;99.90
4435;DHT22;46552;52.150;8.428;2023-04-25T07:59:02;10.50;99.90
4435;DHT22;46552;52.150;8.428;2023-04-25T08:01:29;10.60;99.90
4435;DHT22;46552;52.150;8.428;2023-04-25T08:03:57;10.70;99.90
4435;DHT22;46552;52.150;8.428;2023-04-25T08:06:24;10.80;99.90
4435;DHT22;46552;52.150;8.428;2023-04-25T08:08:51;10.80;99.90
4435;DHT22;46552;52.150;8.428;2023-04-25T08:11:18;10.70;99.90
4435;DHT22;46552;52.150;8.428;2023-04-25T08:13:46;10.40;99.90
4435;DHT22;46552;52.150;8.428;2023-04-25T08:16:14;10.40;99.90
4435;DHT22;46552;52.150;8.428;2023-04-25T08:18:42;10.40;99.90
4435;DHT22;46552;52.150;8.428;2023-04-25T08:21:09;10.50;99.90
4435;DHT22;46552;52.150;8.428;2023-04-25T08:23:37;10.50;99.90
4435;DHT22;46552;52.150;8.428;2023-04-25T08:26:04;10.40;99.90
4435;DHT22;46552;52.150;8.428;2023-04-25T08:28:31;10.40;99.90
4435;DHT22;46552;52.150;8.428;2023-04-25T08:30:59;10.40;99.90
4435;DHT22;46552;52.150;8.428;2023-04-25T08:33:27;10.40;99.90
4435;DHT22;46552;52.150;8.428;2023-04-25T08:38:23;10.80;99.90
4435;DHT22;46552;52.150;8.428;2023-04-25T08:40:51;10.80;99.90
4435;DHT22;46552;52.150;8.428;2023-04-25T08:43:19;10.80;99.90
4435;DHT22;46552;52.150;8.428;2023-04-25T08:45:47;10.80;99.90
4435;DHT22;46552;52.150;8.428;2023-04-25T08:48:15;10.80;99.90
4435;DHT22;46552;52.150;8.428;2023-04-25T08:50:47;10.90;99.90
4435;DHT22;46552;52.150;8.428;2023-04-25T08:53:21;11.00;99.90
4435;DHT22;46552;52.150;8.428;2023-04-25T08:55:52;11.10;99.90
4435;DHT22;46552;52.150;8.428;2023-04-25T08:58:21;11.20;99.90
4435;DHT22;46552;52.150;8.428;2023-04-25T09:00:49;11.20;99.90
4435;DHT22;46552;52.150;8.428;2023-04-25T09:03:16;11.40;99.90
4435;DHT22;46552;52.150;8.428;2023-04-25T09:05:45;11.70;99.90
4435;DHT22;46552;52.150;8.428;2023-04-25T09:08:12;12.10;99.70
4435;DHT22;46552;52.150;8.428;2023-04-25T09:10:40;12.40;99.00
4435;DHT22;46552;52.150;8.428;2023-04-25T09:13:08;12.40;98.20
4435;DHT22;46552;52.150;8.428;2023-04-25T09:15:47;12.10;97.00
4435;DHT22;46552;52.150;8.428;2023-04-25T09:18:22;11.90;96.90
4435;DHT22;46552;52.150;8.428;2023-04-25T09:20:53;11.80;97.60
4435;DHT22;46552;52.150;8.428;2023-04-25T09:23:22;11.80;97.80
4435;DHT22;46552;52.150;8.428;2023-04-25T09:25:50;11.40;96.20
4435;DHT22;46552;52.150;8.428;2023-04-25T09:28:23;11.40;97.10
4435;DHT22;46552;52.150;8.428;2023-04-25T09:30:55;10.90;97.20
4435;DHT22;46552;52.150;8.428;2023-04-25T09:33:28;10.90;97.60
4435;DHT22;46552;52.150;8.428;2023-04-25T09:36:05;10.60;97.80
4435;DHT22;46552;52.150;8.428;2023-04-25T09:38:40;10.50;97.50
4435;DHT22;46552;52.150;8.428;2023-04-25T09:41:08;10.40;97.70
4435;DHT22;46552;52.150;8.428;2023-04-25T09:43:37;10.40;98.10
4435;DHT22;46552;52.150;8.428;2023-04-25T09:46:08;10.50;98.00
4435;DHT22;46552;52.150;8.428;2023-04-25T09:48:36;10.50;98.30
4435;DHT22;46552;52.150;8.428;2023-04-25T09:51:07;10.40;97.80
4435;DHT22;46552;52.150;8.428;2023-04-25T09:53:36;10.30;97.20
4435;DHT22;46552;52.150;8.428;2023-04-25T09:56:05;10.30;97.90
4435;DHT22;46552;52.150;8.428;2023-04-25T09:58:34;10.30;97.40
4435;DHT22;46552;52.150;8.428;2023-04-25T10:01:03;10.30;97.70
4435;DHT22;46552;52.150;8.428;2023-04-25T10:03:32;10.30;97.70
4435;DHT22;46552;52.150;8.428;2023-04-25T10:06:02;10.30;97.30
4435;DHT22;46552;52.150;8.428;2023-04-25T10:08:32;10.40;97.20
4435;DHT22;46552;52.150;8.428;2023-04-25T10:11:01;10.40;96.70
4435;DHT22;46552;52.150;8.428;2023-04-25T10:13:29;10.60;97.20
4435;DHT22;46552;52.150;8.428;2023-04-25T10:15:57;10.80;96.50
4435;DHT22;46552;52.150;8.428;2023-04-25T10:18:25;11.00;96.30
4435;DHT22;46552;52.150;8.428;2023-04-25T10:20:54;11.90;95.30
4435;DHT22;46552;52.150;8.428;2023-04-25T10:23:23;11.90;95.70
4435;DHT22;46552;52.150;8.428;2023-04-25T10:25:54;12.60;94.50
4435;DHT22;46552;52.150;8.428;2023-04-25T10:28:21;12.80;94.30
4435;DHT22;46552;52.150;8.428;2023-04-25T10:30:58;12.90;94.60
4435;DHT22;46552;52.150;8.428;2023-04-25T10:33:43;12.80;93.50
4435;DHT22;46552;52.150;8.428;2023-04-25T10:36:15;12.80;93.10
4435;DHT22;46552;52.150;8.428;2023-04-25T10:38:45;12.60;93.90
4435;DHT22;46552;52.150;8.428;2023-04-25T10:41:14;12.60;93.80
4435;DHT22;46552;52.150;8.428;2023-04-25T10:43:42;12.40;93.70
4435;DHT22;46552;52.150;8.428;2023-04-25T10:46:14;12.20;94.10
4435;DHT22;46552;52.150;8.428;2023-04-25T10:48:46;11.90;93.80
4435;DHT22;46552;52.150;8.428;2023-04-25T10:51:23;11.80;93.90
4435;DHT22;46552;52.150;8.428;2023-04-25T10:53:58;11.80;94.40
4435;DHT22;46552;52.150;8.428;2023-04-25T10:56:27;11.70;93.50
4435;DHT22;46552;52.150;8.428;2023-04-25T10:59:08;11.60;93.90
4435;DHT22;46552;52.150;8.428;2023-04-25T11:01:40;11.50;93.40
4435;DHT22;46552;52.150;8.428;2023-04-25T11:04:20;11.40;93.60
4435;DHT22;46552;52.150;8.428;2023-04-25T11:07:00;11.30;93.40
4435;DHT22;46552;52.150;8.428;2023-04-25T11:09:29;11.20;93.50
4435;DHT22;46552;52.150;8.428;2023-04-25T11:11:59;11.20;94.00
4435;DHT22;46552;52.150;8.428;2023-04-25T11:14:27;11.30;94.00
4435;DHT22;46552;52.150;8.428;2023-04-25T11:16:54;11.70;93.30
4435;DHT22;46552;52.150;8.428;2023-04-25T11:19:21;11.70;93.80
4435;DHT22;46552;52.150;8.428;2023-04-25T11:21:49;11.80;93.90
4435;DHT22;46552;52.150;8.428;2023-04-25T11:24:16;11.80;93.90
4435;DHT22;46552;52.150;8.428;2023-04-25T11:26:47;11.90;93.90
4435;DHT22;46552;52.150;8.428;2023-04-25T11:29:16;11.80;94.00
4435;DHT22;46552;52.150;8.428;2023-04-25T11:31:44;11.70;94.00
4435;DHT22;46552;52.150;8.428;2023-04-25T11:34:11;11.40;94.70
4435;DHT22;46552;52.150;8.428;2023-04-25T11:36:45;11.40;94.70
4435;DHT22;46552;52.150;8.428;2023-04-25T11:39:12;11.00;95.10
4435;DHT22;46552;52.150;8.428;2023-04-25T11:41:41;11.10;95.40
4435;DHT22;46552;52.150;8.428;2023-04-25T11:46:38;11.00;95.70
4435;DHT22;46552;52.150;8.428;2023-04-25T11:49:05;11.00;95.10
4435;DHT22;46552;52.150;8.428;2023-04-25T11:51:38;11.00;95.40
4435;DHT22;46552;52.150;8.428;2023-04-25T11:54:06;11.50;94.90
4435;DHT22;46552;52.150;8.428;2023-04-25T11:56:33;11.70;94.40
4435;DHT22;46552;52.150;8.428;2023-04-25T11:59:03;11.80;94.70
4435;DHT22;46552;52.150;8.428;2023-04-25T12:01:31;12.40;94.60
4435;DHT22;46552;52.150;8.428;2023-04-25T12:04:10;12.80;94.00
4435;DHT22;46552;52.150;8.428;2023-04-25T12:06:38;13.30;92.80
4435;DHT22;46552;52.150;8.428;2023-04-25T12:09:08;13.50;92.70
4435;DHT22;46552;52.150;8.428;2023-04-25T12:11:41;13.60;92.70
4435;DHT22;46552;52.150;8.428;2023-04-25T12:14:09;13.90;91.70
4435;DHT22;46552;52.150;8.428;2023-04-25T12:16:41;14.20;92.10
4435;DHT22;46552;52.150;8.428;2023-04-25T12:19:13;14.50;91.30
4435;DHT22;46552;52.150;8.428;2023-04-25T12:21:40;14.70;91.80
4435;DHT22;46552;52.150;8.428;2023-04-25T12:24:11;15.00;90.70
4435;DHT22;46552;52.150;8.428;2023-04-25T12:26:47;15.10;89.10
4435;DHT22;46552;52.150;8.428;2023-04-25T12:29:19;15.20;90.10
4435;DHT22;46552;52.150;8.428;2023-04-25T12:31:47;15.40;89.90
4435;DHT22;46552;52.150;8.428;2023-04-25T12:34:17;15.70;89.30
4435;DHT22;46552;52.150;8.428;2023-04-25T12:36:45;15.70;89.20
4435;DHT22;46552;52.150;8.428;2023-04-25T12:39:15;16.00;89.60
4435;DHT22;46552;52.150;8.428;2023-04-25T12:41:44;16.10;88.10
4435;DHT22;46552;52.150;8.428;2023-04-25T12:44:11;15.90;87.40
4435;DHT22;46552;52.150;8.428;2023-04-25T12:46:38;15.30;82.40
4435;DHT22;46552;52.150;8.428;2023-04-25T12:49:06;15.10;85.90
4435;DHT22;46552;52.150;8.428;2023-04-25T12:51:36;14.90;86.80
4435;DHT22;46552;52.150;8.428;2023-04-25T12:54:04;14.60;86.20
4435;DHT22;46552;52.150;8.428;2023-04-25T12:56:33;14.30;86.60
4435;DHT22;46552;52.150;8.428;2023-04-25T12:59:00;13.90;87.30
4435;DHT22;46552;52.150;8.428;2023-04-25T13:01:29;15.70;91.40
4435;DHT22;46552;52.150;8.428;2023-04-25T13:03:56;13.50;90.50
4435;DHT22;46552;52.150;8.428;2023-04-25T13:06:23;12.90;91.00
4435;DHT22;46552;52.150;8.428;2023-04-25T13:08:52;12.50;92.00
4435;DHT22;46552;52.150;8.428;2023-04-25T13:11:20;11.80;93.80
4435;DHT22;46552;52.150;8.428;2023-04-25T13:13:47;11.80;93.80
4435;DHT22;46552;52.150;8.428;2023-04-25T13:16:14;11.30;95.20
4435;DHT22;46552;52.150;8.428;2023-04-25T13:18:41;11.30;95.40
4435;DHT22;46552;52.150;8.428;2023-04-25T13:21:09;11.10;96.30
4435;DHT22;46552;52.150;8.428;2023-04-25T13:23:37;11.10;96.90
4435;DHT22;46552;52.150;8.428;2023-04-25T13:26:06;11.20;97.50
4435;DHT22;46552;52.150;8.428;2023-04-25T13:28:33;11.20;97.30
4435;DHT22;46552;52.150;8.428;2023-04-25T13:31:00;11.30;96.60
4435;DHT22;46552;52.150;8.428;2023-04-25T13:33:28;12.20;95.60
4435;DHT22;46552;52.150;8.428;2023-04-25T13:35:55;12.40;93.80
4435;DHT22;46552;52.150;8.428;2023-04-25T13:38:24;12.40;94.70
4435;DHT22;46552;52.150;8.428;2023-04-25T13:40:51;12.70;94.30
4435;DHT22;46552;52.150;8.428;2023-04-25T13:43:21;12.90;93.90
4435;DHT22;46552;52.150;8.428;2023-04-25T13:45:48;13.10;93.10
4435;DHT22;46552;52.150;8.428;2023-04-25T13:48:15;13.20;92.90
4435;DHT22;46552;52.150;8.428;2023-04-25T13:50:42;13.30;92.40
4435;DHT22;46552;52.150;8.428;2023-04-25T13:53:09;13.40;91.80
4435;DHT22;46552;52.150;8.428;2023-04-25T13:55:37;13.50;90.70
4435;DHT22;46552;52.150;8.428;2023-04-25T13:58:04;13.50;90.70
4435;DHT22;46552;52.150;8.428;2023-04-25T14:00:36;13.50;90.80
4435;DHT22;46552;52.150;8.428;2023-04-25T14:03:05;13.60;88.80
4435;DHT22;46552;52.150;8.428;2023-04-25T14:05:34;13.60;90.20
4435;DHT22;46552;52.150;8.428;2023-04-25T14:08:06;13.80;88.60
4435;DHT22;46552;52.150;8.428;2023-04-25T14:10:34;13.80;86.90
4435;DHT22;46552;52.150;8.428;2023-04-25T14:13:02;13.60;82.80
4435;DHT22;46552;52.150;8.428;2023-04-25T14:15:31;13.60;85.90
4435;DHT22;46552;52.150;8.428;2023-04-25T14:18:00;13.50;85.90
4435;DHT22;46552;52.150;8.428;2023-04-25T14:20:28;13.60;86.70
4435;DHT22;46552;52.150;8.428;2023-04-25T14:22:56;13.70;86.30
4435;DHT22;46552;52.150;8.428;2023-04-25T14:25:24;13.70;86.00
4435;DHT22;46552;52.150;8.428;2023-04-25T14:27:51;13.80;85.20
4435;DHT22;46552;52.150;8.428;2023-04-25T14:30:19;13.80;84.60
4435;DHT22;46552;52.150;8.428;2023-04-25T14:32:47;13.90;84.40
4435;DHT22;46552;52.150;8.428;2023-04-25T14:35:16;13.80;83.00
4435;DHT22;46552;52.150;8.428;2023-04-25T14:37:43;13.70;83.20
4435;DHT22;46552;52.150;8.428;2023-04-25T14:40:12;13.60;83.00
4435;DHT22;46552;52.150;8.428;2023-04-25T14:42:41;13.50;83.40
4435;DHT22;46552;52.150;8.428;2023-04-25T14:45:09;13.20;83.20
4435;DHT22;46552;52.150;8.428;2023-04-25T14:47:37;13.10;83.90
4435;DHT22;46552;52.150;8.428;2023-04-25T14:50:05;12.90;86.50
4435;DHT22;46552;52.150;8.428;2023-04-25T14:52:34;12.60;88.00
4435;DHT22;46552;52.150;8.428;2023-04-25T14:55:02;12.20;90.00
4435;DHT22;46552;52.150;8.428;2023-04-25T14:57:30;12.00;91.50
4435;DHT22;46552;52.150;8.428;2023-04-25T14:59:57;11.60;91.90
4435;DHT22;46552;52.150;8.428;2023-04-25T15:02:25;11.50;91.90
4435;DHT22;46552;52.150;8.428;2023-04-25T15:04:52;11.40;92.20
4435;DHT22;46552;52.150;8.428;2023-04-25T15:07:20;11.30;92.60
4435;DHT22;46552;52.150;8.428;2023-04-25T15:09:49;11.10;92.80
4435;DHT22;46552;52.150;8.428;2023-04-25T15:12:19;11.10;93.20
4435;DHT22;46552;52.150;8.428;2023-04-25T15:14:46;11.10;93.20
4435;DHT22;46552;52.150;8.428;2023-04-25T15:17:14;11.10;93.40
4435;DHT22;46552;52.150;8.428;2023-04-25T15:19:41;11.20;93.00
4435;DHT22;46552;52.150;8.428;2023-04-25T15:22:08;11.20;93.20
4435;DHT22;46552;52.150;8.428;2023-04-25T15:24:35;11.40;93.00
4435;DHT22;46552;52.150;8.428;2023-04-25T15:27:04;11.50;92.70
4435;DHT22;46552;52.150;8.428;2023-04-25T15:29:31;11.80;92.30
4435;DHT22;46552;52.150;8.428;2023-04-25T15:31:58;11.90;91.70
4435;DHT22;46552;52.150;8.428;2023-04-25T15:34:25;12.10;91.30
4435;DHT22;46552;52.150;8.428;2023-04-25T15:36:52;12.20;91.00
4435;DHT22;46552;52.150;8.428;2023-04-25T15:39:20;12.40;90.00
4435;DHT22;46552;52.150;8.428;2023-04-25T15:41:47;12.40;90.40
4435;DHT22;46552;52.150;8.428;2023-04-25T15:44:16;12.40;90.50
4435;DHT22;46552;52.150;8.428;2023-04-25T15:46:43;12.40;90.60
4435;DHT22;46552;52.150;8.428;2023-04-25T15:49:11;12.50;90.70
4435;DHT22;46552;52.150;8.428;2023-04-25T15:51:38;12.40;90.90
4435;DHT22;46552;52.150;8.428;2023-04-25T15:54:05;11.90;91.90
4435;DHT22;46552;52.150;8.428;2023-04-25T15:56:32;11.50;92.50
4435;DHT22;46552;52.150;8.428;2023-04-25T15:58:59;11.10;93.00
4435;DHT22;46552;52.150;8.428;2023-04-25T16:01:29;10.80;93.50
4435;DHT22;46552;52.150;8.428;2023-04-25T16:03:57;10.80;93.60
4435;DHT22;46552;52.150;8.428;2023-04-25T16:06:26;10.50;93.80
4435;DHT22;46552;52.150;8.428;2023-04-25T16:08:53;10.40;93.80
4435;DHT22;46552;52.150;8.428;2023-04-25T16:11:21;10.30;93.70
4435;DHT22;46552;52.150;8.428;2023-04-25T16:16:15;10.30;93.50
4435;DHT22;46552;52.150;8.428;2023-04-25T16:18:44;10.30;93.30
4435;DHT22;46552;52.150;8.428;2023-04-25T16:21:11;10.30;93.00
4435;DHT22;46552;52.150;8.428;2023-04-25T16:23:41;10.40;92.90